sensor_id;sensor_type;location;lat;lon;timestamp;P1;durP1;ratioP1;P2;durP2;ratioP2
60582;SDS011;46415;47.536;19.066;2023-04-26T00:01:58;3.70;;;3.10;;
60582;SDS011;46415;47.536;19.066;2023-04-26T00:05:02;5.57;;;3.08;;
60582;SDS011;46415;47.536;19.066;2023-04-26T00:08:06;3.40;;;3.08;;
60582;SDS011;46415;47.536;19.066;2023-04-26T00:11:10;4.40;;;3.17;;
60582;SDS011;46415;47.536;19.066;2023-04-26T00:14:13;4.35;;;3.42;;
60582;SDS011;46415;47.536;19.066;2023-04-26T00:17:16;3.80;;;3.25;;
60582;SDS011;46415;47.536;19.066;2023-04-26T00:20:19;3.87;;;3.22;;
60582;SDS011;46415;47.536;19.066;2023-04-26T00:23:23;3.78;;;3.15;;
60582;SDS011;46415;47.536;19.066;2023-04-26T00:26:25;5.70;;;3.40;;
60582;SDS011;46415;47.536;19.066;2023-04-26T00:29:29;4.12;;;2.95;;
60582;SDS011;46415;47.536;19.066;2023-04-26T00:32:31;3.12;;;2.83;;
60582;SDS011;46415;47.536;19.066;2023-04-26T00:35:36;3.17;;;2.72;;
60582;SDS011;46415;47.536;19.066;2023-04-26T00:38:40;3.67;;;3.37;;
60582;SDS011;46415;47.536;19.066;2023-04-26T00:41:44;3.03;;;2.72;;
60582;SDS011;46415;47.536;19.066;2023-04-26T00:44:46;3.28;;;2.95;;
60582;SDS011;46415;47.536;19.066;2023-04-26T00:47:51;3.37;;;3.00;;
60582;SDS011;46415;47.536;19.066;2023-04-26T00:50:54;7.07;;;3.12;;
60582;SDS011;46415;47.536;19.066;2023-04-26T00:53:58;5.75;;;3.17;;
60582;SDS011;46415;47.536;19.066;2023-04-26T00:57:01;3.80;;;3.03;;
60582;SDS011;46415;47.536;19.066;2023-04-26T01:00:04;4.95;;;3.35;;
60582;SDS011;46415;47.536;19.066;2023-04-26T01:03:08;3.42;;;2.83;;
60582;SDS011;46415;47.536;19.066;2023-04-26T01:06:11;3.50;;;3.20;;
60582;SDS011;46415;47.536;19.066;2023-04-26T01:09:13;3.08;;;2.40;;
60582;SDS011;46415;47.536;19.066;2023-04-26T01:12:17;5.22;;;3.25;;
60582;SDS011;46415;47.536;19.066;2023-04-26T01:15:20;3.62;;;2.87;;
60582;SDS011;46415;47.536;19.066;2023-04-26T01:18:24;2.83;;;2.62;;
60582;SDS011;46415;47.536;19.066;2023-04-26T01:21:26;4.28;;;3.08;;
60582;SDS011;46415;47.536;19.066;2023-04-26T01:24:30;4.05;;;3.22;;
60582;SDS011;46415;47.536;19.066;2023-04-26T01:27:38;2.75;;;2.37;;
60582;SDS011;46415;47.536;19.066;2023-04-26T01:30:41;3.45;;;3.15;;
60582;SDS011;46415;47.536;19.066;2023-04-26T01:33:44;3.42;;;2.95;;
60582;SDS011;46415;47.536;19.066;2023-04-26T01:36:47;4.22;;;3.40;;
60582;SDS011;46415;47.536;19.066;2023-04-26T01:39:50;5.57;;;3.42;;
60582;SDS011;46415;47.536;19.066;2023-04-26T01:42:54;4.30;;;3.47;;
60582;SDS011;46415;47.536;19.066;2023-04-26T01:45:57;5.62;;;2.60;;
60582;SDS011;46415;47.536;19.066;2023-04-26T01:49:03;4.62;;;3.20;;
60582;SDS011;46415;47.536;19.066;2023-04-26T01:52:06;5.32;;;3.42;;
60582;SDS011;46415;47.536;19.066;2023-04-26T01:55:09;2.92;;;2.72;;
60582;SDS011;46415;47.536;19.066;2023-04-26T01:58:12;3.15;;;2.85;;
60582;SDS011;46415;47.536;19.066;2023-04-26T02:01:15;3.47;;;2.62;;
60582;SDS011;46415;47.536;19.066;2023-04-26T02:04:19;2.95;;;2.75;;
60582;SDS011;46415;47.536;19.066;2023-04-26T02:07:21;3.33;;;3.05;;
60582;SDS011;46415;47.536;19.066;2023-04-26T02:10:26;3.00;;;2.70;;
60582;SDS011;46415;47.536;19.066;2023-04-26T02:13:29;2.83;;;2.40;;
60582;SDS011;46415;47.536;19.066;2023-04-26T02:16:32;2.70;;;2.50;;
60582;SDS011;46415;47.536;19.066;2023-04-26T02:19:35;2.65;;;2.45;;
60582;SDS011;46415;47.536;19.066;2023-04-26T02:22:38;4.03;;;3.00;;
60582;SDS011;46415;47.536;19.066;2023-04-26T02:25:42;6.47;;;2.53;;
60582;SDS011;46415;47.536;19.066;2023-04-26T02:28:47;5.30;;;2.10;;
60582;SDS011;46415;47.536;19.066;2023-04-26T02:31:50;6.70;;;2.62;;
60582;SDS011;46415;47.536;19.066;2023-04-26T02:34:53;3.53;;;3.22;;
60582;SDS011;46415;47.536;19.066;2023-04-26T02:37:55;3.00;;;2.65;;
60582;SDS011;46415;47.536;19.066;2023-04-26T02:40:59;4.28;;;2.40;;
60582;SDS011;46415;47.536;19.066;2023-04-26T02:44:03;3.80;;;2.65;;
60582;SDS011;46415;47.536;19.066;2023-04-26T02:47:06;3.10;;;2.40;;
60582;SDS011;46415;47.536;19.066;2023-04-26T02:50:09;2.53;;;2.33;;
60582;SDS011;46415;47.536;19.066;2023-04-26T02:53:12;2.47;;;2.28;;
60582;SDS011;46415;47.536;19.066;2023-04-26T02:56:15;2.72;;;2.50;;
60582;SDS011;46415;47.536;19.066;2023-04-26T02:59:18;2.45;;;2.25;;
60582;SDS011;46415;47.536;19.066;2023-04-26T03:02:22;2.97;;;2.40;;
60582;SDS011;46415;47.536;19.066;2023-04-26T03:05:25;4.40;;;2.03;;
60582;SDS011;46415;47.536;19.066;2023-04-26T03:08:27;2.35;;;2.15;;
60582;SDS011;46415;47.536;19.066;2023-04-26T03:11:30;3.35;;;2.37;;
60582;SDS011;46415;47.536;19.066;2023-04-26T03:14:33;2.22;;;1.92;;
60582;SDS011;46415;47.536;19.066;2023-04-26T03:17:37;20.35;;;2.58;;
60582;SDS011;46415;47.536;19.066;2023-04-26T03:20:40;1.87;;;1.77;;
60582;SDS011;46415;47.536;19.066;2023-04-26T03:23:44;3.45;;;2.25;;
60582;SDS011;46415;47.536;19.066;2023-04-26T03:26:47;2.33;;;2.12;;
60582;SDS011;46415;47.536;19.066;2023-04-26T03:29:51;6.68;;;2.17;;
60582;SDS011;46415;47.536;19.066;2023-04-26T03:32:54;2.15;;;2.05;;
60582;SDS011;46415;47.536;19.066;2023-04-26T03:35:57;1.70;;;1.60;;
60582;SDS011;46415;47.536;19.066;2023-04-26T03:39:00;4.30;;;2.25;;
60582;SDS011;46415;47.536;19.066;2023-04-26T03:42:03;5.40;;;2.42;;
60582;SDS011;46415;47.536;19.066;2023-04-26T03:45:07;3.37;;;2.62;;
60582;SDS011;46415;47.536;19.066;2023-04-26T03:48:11;2.30;;;2.05;;
60582;SDS011;46415;47.536;19.066;2023-04-26T03:51:13;4.07;;;2.40;;
60582;SDS011;46415;47.536;19.066;2023-04-26T03:54:16;2.80;;;2.22;;
60582;SDS011;46415;47.536;19.066;2023-04-26T03:57:19;4.72;;;2.22;;
60582;SDS011;46415;47.536;19.066;2023-04-26T04:00:22;4.03;;;2.10;;
60582;SDS011;46415;47.536;19.066;2023-04-26T04:03:25;3.17;;;2.30;;
60582;SDS011;46415;47.536;19.066;2023-04-26T04:06:29;4.57;;;2.10;;
60582;SDS011;46415;47.536;19.066;2023-04-26T04:09:32;2.53;;;2.12;;
60582;SDS011;46415;47.536;19.066;2023-04-26T04:12:35;2.33;;;2.12;;
60582;SDS011;46415;47.536;19.066;2023-04-26T04:15:38;2.90;;;2.37;;
60582;SDS011;46415;47.536;19.066;2023-04-26T04:18:42;4.25;;;2.05;;
60582;SDS011;46415;47.536;19.066;2023-04-26T04:21:45;3.67;;;2.03;;
60582;SDS011;46415;47.536;19.066;2023-04-26T04:24:48;2.28;;;2.00;;
60582;SDS011;46415;47.536;19.066;2023-04-26T04:27:51;3.53;;;2.15;;
60582;SDS011;46415;47.536;19.066;2023-04-26T04:30:55;3.75;;;2.00;;
60582;SDS011;46415;47.536;19.066;2023-04-26T04:33:59;3.90;;;2.30;;
60582;SDS011;46415;47.536;19.066;2023-04-26T04:37:02;2.47;;;2.20;;
60582;SDS011;46415;47.536;19.066;2023-04-26T04:40:06;5.45;;;1.75;;
60582;SDS011;46415;47.536;19.066;2023-04-26T04:43:14;4.90;;;2.47;;
60582;SDS011;46415;47.536;19.066;2023-04-26T04:46:19;3.72;;;2.30;;
60582;SDS011;46415;47.536;19.066;2023-04-26T04:49:23;3.75;;;2.40;;
60582;SDS011;46415;47.536;19.066;2023-04-26T04:52:29;2.83;;;2.25;;
60582;SDS011;46415;47.536;19.066;2023-04-26T04:55:31;5.28;;;2.72;;
60582;SDS011;46415;47.536;19.066;2023-04-26T04:58:35;5.95;;;3.08;;
60582;SDS011;46415;47.536;19.066;2023-04-26T05:01:39;2.67;;;2.42;;
60582;SDS011;46415;47.536;19.066;2023-04-26T05:04:42;2.95;;;2.42;;
60582;SDS011;46415;47.536;19.066;2023-04-26T05:07:45;3.35;;;2.90;;
60582;SDS011;46415;47.536;19.066;2023-04-26T05:10:50;3.47;;;2.72;;
60582;SDS011;46415;47.536;19.066;2023-04-26T05:13:53;4.97;;;3.35;;
60582;SDS011;46415;47.536;19.066;2023-04-26T05:16:56;4.10;;;3.05;;
60582;SDS011;46415;47.536;19.066;2023-04-26T05:19:59;8.23;;;3.33;;
60582;SDS011;46415;47.536;19.066;2023-04-26T05:23:07;5.43;;;3.28;;
60582;SDS011;46415;47.536;19.066;2023-04-26T05:26:11;3.80;;;3.40;;
60582;SDS011;46415;47.536;19.066;2023-04-26T05:29:17;5.70;;;3.67;;
60582;SDS011;46415;47.536;19.066;2023-04-26T05:32:20;7.55;;;2.90;;
60582;SDS011;46415;47.536;19.066;2023-04-26T05:35:23;4.12;;;3.40;;
60582;SDS011;46415;47.536;19.066;2023-04-26T05:38:26;3.58;;;3.08;;
60582;SDS011;46415;47.536;19.066;2023-04-26T05:41:29;4.25;;;2.85;;
60582;SDS011;46415;47.536;19.066;2023-04-26T05:44:32;6.00;;;3.35;;
60582;SDS011;46415;47.536;19.066;2023-04-26T05:47:36;4.22;;;2.50;;
60582;SDS011;46415;47.536;19.066;2023-04-26T05:50:39;5.43;;;3.17;;
60582;SDS011;46415;47.536;19.066;2023-04-26T05:53:43;2.65;;;2.33;;
60582;SDS011;46415;47.536;19.066;2023-04-26T05:56:46;4.10;;;2.78;;
60582;SDS011;46415;47.536;19.066;2023-04-26T05:59:49;2.90;;;2.55;;
60582;SDS011;46415;47.536;19.066;2023-04-26T06:02:52;7.40;;;3.72;;
60582;SDS011;46415;47.536;19.066;2023-04-26T06:05:55;3.70;;;2.85;;
60582;SDS011;46415;47.536;19.066;2023-04-26T06:08:58;6.35;;;3.20;;
60582;SDS011;46415;47.536;19.066;2023-04-26T06:12:03;4.20;;;2.67;;
60582;SDS011;46415;47.536;19.066;2023-04-26T06:15:07;4.75;;;2.72;;
60582;SDS011;46415;47.536;19.066;2023-04-26T06:18:11;7.07;;;2.90;;
60582;SDS011;46415;47.536;19.066;2023-04-26T06:21:14;2.67;;;2.47;;
60582;SDS011;46415;47.536;19.066;2023-04-26T06:24:17;3.87;;;2.80;;
60582;SDS011;46415;47.536;19.066;2023-04-26T06:27:20;4.35;;;2.53;;
60582;SDS011;46415;47.536;19.066;2023-04-26T06:30:24;3.92;;;3.10;;
60582;SDS011;46415;47.536;19.066;2023-04-26T06:33:27;5.37;;;3.22;;
60582;SDS011;46415;47.536;19.066;2023-04-26T06:36:31;4.97;;;2.80;;
60582;SDS011;46415;47.536;19.066;2023-04-26T06:39:34;3.97;;;3.30;;
60582;SDS011;46415;47.536;19.066;2023-04-26T06:42:37;5.53;;;2.97;;
60582;SDS011;46415;47.536;19.066;2023-04-26T06:45:40;6.32;;;2.25;;
60582;SDS011;46415;47.536;19.066;2023-04-26T06:48:46;4.72;;;2.50;;
60582;SDS011;46415;47.536;19.066;2023-04-26T06:51:48;4.43;;;3.05;;
60582;SDS011;46415;47.536;19.066;2023-04-26T06:54:54;5.62;;;2.45;;
60582;SDS011;46415;47.536;19.066;2023-04-26T06:57:59;6.85;;;2.80;;
60582;SDS011;46415;47.536;19.066;2023-04-26T07:01:02;4.60;;;3.00;;
60582;SDS011;46415;47.536;19.066;2023-04-26T07:04:05;2.90;;;2.10;;
60582;SDS011;46415;47.536;19.066;2023-04-26T07:07:14;6.82;;;2.85;;
60582;SDS011;46415;47.536;19.066;2023-04-26T07:10:18;5.32;;;2.90;;
60582;SDS011;46415;47.536;19.066;2023-04-26T07:13:22;3.40;;;2.33;;
60582;SDS011;46415;47.536;19.066;2023-04-26T07:16:25;3.67;;;2.42;;
60582;SDS011;46415;47.536;19.066;2023-04-26T07:19:29;4.12;;;2.03;;
60582;SDS011;46415;47.536;19.066;2023-04-26T07:22:31;3.08;;;2.15;;
60582;SDS011;46415;47.536;19.066;2023-04-26T07:25:35;4.65;;;2.60;;
60582;SDS011;46415;47.536;19.066;2023-04-26T07:28:37;4.40;;;2.33;;
60582;SDS011;46415;47.536;19.066;2023-04-26T07:31:41;3.60;;;2.50;;
60582;SDS011;46415;47.536;19.066;2023-04-26T07:34:44;4.97;;;2.37;;
60582;SDS011;46415;47.536;19.066;2023-04-26T07:37:47;4.62;;;2.90;;
60582;SDS011;46415;47.536;19.066;2023-04-26T07:40:50;5.40;;;2.62;;
60582;SDS011;46415;47.536;19.066;2023-04-26T07:43:53;4.18;;;2.42;;
60582;SDS011;46415;47.536;19.066;2023-04-26T07:46:56;3.42;;;2.35;;
60582;SDS011;46415;47.536;19.066;2023-04-26T07:50:03;2.95;;;2.15;;
60582;SDS011;46415;47.536;19.066;2023-04-26T07:53:07;4.70;;;2.37;;
60582;SDS011;46415;47.536;19.066;2023-04-26T07:56:10;4.68;;;2.28;;
60582;SDS011;46415;47.536;19.066;2023-04-26T07:59:13;3.17;;;2.20;;
60582;SDS011;46415;47.536;19.066;2023-04-26T08:02:16;5.95;;;2.78;;
60582;SDS011;46415;47.536;19.066;2023-04-26T08:05:19;5.15;;;2.53;;
60582;SDS011;46415;47.536;19.066;2023-04-26T08:08:26;7.40;;;2.50;;
60582;SDS011;46415;47.536;19.066;2023-04-26T08:11:29;4.72;;;2.60;;
60582;SDS011;46415;47.536;19.066;2023-04-26T08:14:35;4.37;;;2.60;;
60582;SDS011;46415;47.536;19.066;2023-04-26T08:17:38;4.05;;;2.28;;
60582;SDS011;46415;47.536;19.066;2023-04-26T08:20:43;3.55;;;2.30;;
60582;SDS011;46415;47.536;19.066;2023-04-26T08:23:46;4.35;;;2.25;;
60582;SDS011;46415;47.536;19.066;2023-04-26T08:26:48;2.83;;;2.25;;
60582;SDS011;46415;47.536;19.066;2023-04-26T08:29:51;3.28;;;1.98;;
60582;SDS011;46415;47.536;19.066;2023-04-26T08:32:54;3.62;;;2.37;;
60582;SDS011;46415;47.536;19.066;2023-04-26T08:35:58;5.22;;;2.12;;
60582;SDS011;46415;47.536;19.066;2023-04-26T08:39:02;4.25;;;2.05;;
60582;SDS011;46415;47.536;19.066;2023-04-26T08:42:13;3.37;;;2.08;;
60582;SDS011;46415;47.536;19.066;2023-04-26T08:45:17;4.68;;;2.33;;
60582;SDS011;46415;47.536;19.066;2023-04-26T08:48:24;4.05;;;2.20;;
60582;SDS011;46415;47.536;19.066;2023-04-26T08:51:29;4.07;;;2.17;;
60582;SDS011;46415;47.536;19.066;2023-04-26T08:54:35;4.40;;;2.35;;
60582;SDS011;46415;47.536;19.066;2023-04-26T08:57:38;3.33;;;2.20;;
60582;SDS011;46415;47.536;19.066;2023-04-26T09:00:42;3.62;;;2.22;;
60582;SDS011;46415;47.536;19.066;2023-04-26T09:03:49;3.85;;;2.40;;
60582;SDS011;46415;47.536;19.066;2023-04-26T09:06:52;2.95;;;2.22;;
60582;SDS011;46415;47.536;19.066;2023-04-26T09:10:01;3.20;;;2.22;;
60582;SDS011;46415;47.536;19.066;2023-04-26T09:13:06;3.35;;;1.95;;
60582;SDS011;46415;47.536;19.066;2023-04-26T09:16:09;6.75;;;2.28;;
60582;SDS011;46415;47.536;19.066;2023-04-26T09:19:12;3.17;;;1.90;;
60582;SDS011;46415;47.536;19.066;2023-04-26T09:22:26;3.60;;;2.35;;
60582;SDS011;46415;47.536;19.066;2023-04-26T09:25:37;4.00;;;2.03;;
60582;SDS011;46415;47.536;19.066;2023-04-26T09:28:40;2.75;;;1.85;;
60582;SDS011;46415;47.536;19.066;2023-04-26T09:31:45;3.42;;;2.08;;
60582;SDS011;46415;47.536;19.066;2023-04-26T09:34:51;2.90;;;1.90;;
60582;SDS011;46415;47.536;19.066;2023-04-26T09:38:07;3.00;;;2.05;;
60582;SDS011;46415;47.536;19.066;2023-04-26T09:41:15;1.90;;;1.70;;
60582;SDS011;46415;47.536;19.066;2023-04-26T09:44:21;4.18;;;2.50;;
60582;SDS011;46415;47.536;19.066;2023-04-26T09:47:25;2.35;;;1.95;;
60582;SDS011;46415;47.536;19.066;2023-04-26T09:50:29;4.70;;;2.15;;
60582;SDS011;46415;47.536;19.066;2023-04-26T09:53:45;5.03;;;2.10;;
60582;SDS011;46415;47.536;19.066;2023-04-26T09:56:58;2.97;;;1.98;;
60582;SDS011;46415;47.536;19.066;2023-04-26T10:00:02;3.37;;;1.75;;
60582;SDS011;46415;47.536;19.066;2023-04-26T10:03:14;4.87;;;1.98;;
60582;SDS011;46415;47.536;19.066;2023-04-26T10:06:20;3.15;;;1.90;;
60582;SDS011;46415;47.536;19.066;2023-04-26T10:09:23;2.22;;;1.87;;
60582;SDS011;46415;47.536;19.066;2023-04-26T10:12:26;3.00;;;1.95;;
60582;SDS011;46415;47.536;19.066;2023-04-26T10:15:30;6.82;;;2.10;;
60582;SDS011;46415;47.536;19.066;2023-04-26T10:18:33;4.72;;;1.83;;
60582;SDS011;46415;47.536;19.066;2023-04-26T10:21:36;2.92;;;1.50;;
60582;SDS011;46415;47.536;19.066;2023-04-26T10:24:42;2.75;;;1.77;;
60582;SDS011;46415;47.536;19.066;2023-04-26T10:27:47;3.05;;;1.95;;
60582;SDS011;46415;47.536;19.066;2023-04-26T10:30:53;2.75;;;1.75;;
60582;SDS011;46415;47.536;19.066;2023-04-26T10:34:34;3.60;;;1.83;;
60582;SDS011;46415;47.536;19.066;2023-04-26T10:37:30;2.53;;;1.40;;
60582;SDS011;46415;47.536;19.066;2023-04-26T10:40:34;3.53;;;1.83;;
60582;SDS011;46415;47.536;19.066;2023-04-26T10:43:42;2.40;;;1.83;;
60582;SDS011;46415;47.536;19.066;2023-04-26T10:46:48;2.95;;;1.55;;
60582;SDS011;46415;47.536;19.066;2023-04-26T10:49:53;3.03;;;1.70;;
60582;SDS011;46415;47.536;19.066;2023-04-26T10:53:14;2.95;;;1.50;;
60582;SDS011;46415;47.536;19.066;2023-04-26T10:59:26;5.03;;;1.48;;
60582;SDS011;46415;47.536;19.066;2023-04-26T11:06:04;3.08;;;1.52;;
60582;SDS011;46415;47.536;19.066;2023-04-26T11:09:31;2.42;;;1.40;;
60582;SDS011;46415;47.536;19.066;2023-04-26T11:12:40;2.35;;;1.42;;
60582;SDS011;46415;47.536;19.066;2023-04-26T11:15:43;1.67;;;1.58;;
60582;SDS011;46415;47.536;19.066;2023-04-26T11:18:47;2.95;;;1.83;;
60582;SDS011;46415;47.536;19.066;2023-04-26T11:21:50;1.65;;;1.50;;
60582;SDS011;46415;47.536;19.066;2023-04-26T11:24:55;4.57;;;1.77;;
60582;SDS011;46415;47.536;19.066;2023-04-26T11:27:58;3.47;;;1.87;;
60582;SDS011;46415;47.536;19.066;2023-04-26T11:31:04;2.47;;;1.70;;
60582;SDS011;46415;47.536;19.066;2023-04-26T11:34:08;2.60;;;1.45;;
60582;SDS011;46415;47.536;19.066;2023-04-26T11:37:11;1.55;;;1.45;;
60582;SDS011;46415;47.536;19.066;2023-04-26T11:40:15;1.50;;;1.40;;
60582;SDS011;46415;47.536;19.066;2023-04-26T11:43:20;2.17;;;1.70;;
60582;SDS011;46415;47.536;19.066;2023-04-26T11:46:23;4.60;;;1.77;;
60582;SDS011;46415;47.536;19.066;2023-04-26T11:49:27;2.17;;;1.42;;
60582;SDS011;46415;47.536;19.066;2023-04-26T11:52:30;4.87;;;1.58;;
60582;SDS011;46415;47.536;19.066;2023-04-26T11:55:34;3.22;;;1.77;;
60582;SDS011;46415;47.536;19.066;2023-04-26T11:58:38;3.28;;;1.58;;
60582;SDS011;46415;47.536;19.066;2023-04-26T12:01:41;3.33;;;1.70;;
60582;SDS011;46415;47.536;19.066;2023-04-26T12:04:57;4.55;;;1.50;;
60582;SDS011;46415;47.536;19.066;2023-04-26T12:08:00;2.85;;;1.67;;
60582;SDS011;46415;47.536;19.066;2023-04-26T12:11:04;3.15;;;2.00;;
60582;SDS011;46415;47.536;19.066;2023-04-26T12:14:06;2.90;;;1.83;;
60582;SDS011;46415;47.536;19.066;2023-04-26T12:17:13;3.92;;;1.85;;
60582;SDS011;46415;47.536;19.066;2023-04-26T12:20:17;2.22;;;1.60;;
60582;SDS011;46415;47.536;19.066;2023-04-26T12:23:20;3.95;;;1.60;;
60582;SDS011;46415;47.536;19.066;2023-04-26T12:26:38;2.05;;;1.60;;
60582;SDS011;46415;47.536;19.066;2023-04-26T12:29:50;3.08;;;1.48;;
60582;SDS011;46415;47.536;19.066;2023-04-26T12:32:53;2.83;;;1.48;;
60582;SDS011;46415;47.536;19.066;2023-04-26T12:36:11;3.60;;;1.53;;
60582;SDS011;46415;47.536;19.066;2023-04-26T12:39:14;2.30;;;1.58;;
60582;SDS011;46415;47.536;19.066;2023-04-26T12:42:18;1.67;;;1.40;;
60582;SDS011;46415;47.536;19.066;2023-04-26T12:45:22;2.00;;;1.30;;
60582;SDS011;46415;47.536;19.066;2023-04-26T12:48:25;3.03;;;1.40;;
60582;SDS011;46415;47.536;19.066;2023-04-26T12:51:29;2.95;;;1.12;;
60582;SDS011;46415;47.536;19.066;2023-04-26T12:54:33;3.17;;;1.48;;
60582;SDS011;46415;47.536;19.066;2023-04-26T12:57:36;3.60;;;1.60;;
60582;SDS011;46415;47.536;19.066;2023-04-26T13:00:40;1.65;;;1.37;;
60582;SDS011;46415;47.536;19.066;2023-04-26T13:03:45;4.68;;;1.65;;
60582;SDS011;46415;47.536;19.066;2023-04-26T13:06:48;2.47;;;1.50;;
60582;SDS011;46415;47.536;19.066;2023-04-26T13:09:52;2.08;;;1.50;;
60582;SDS011;46415;47.536;19.066;2023-04-26T13:12:55;2.15;;;1.25;;
60582;SDS011;46415;47.536;19.066;2023-04-26T13:15:59;2.55;;;1.58;;
60582;SDS011;46415;47.536;19.066;2023-04-26T13:19:02;1.70;;;1.30;;
60582;SDS011;46415;47.536;19.066;2023-04-26T13:22:05;1.58;;;1.20;;
60582;SDS011;46415;47.536;19.066;2023-04-26T13:25:10;1.90;;;1.35;;
60582;SDS011;46415;47.536;19.066;2023-04-26T13:28:14;2.08;;;1.30;;
60582;SDS011;46415;47.536;19.066;2023-04-26T13:31:17;2.28;;;1.40;;
60582;SDS011;46415;47.536;19.066;2023-04-26T13:34:21;2.53;;;1.58;;
60582;SDS011;46415;47.536;19.066;2023-04-26T13:37:25;3.65;;;1.75;;
60582;SDS011;46415;47.536;19.066;2023-04-26T13:40:30;3.80;;;1.50;;
60582;SDS011;46415;47.536;19.066;2023-04-26T13:43:33;2.75;;;1.42;;
60582;SDS011;46415;47.536;19.066;2023-04-26T13:46:36;1.52;;;1.30;;
60582;SDS011;46415;47.536;19.066;2023-04-26T13:49:39;2.58;;;1.30;;
60582;SDS011;46415;47.536;19.066;2023-04-26T13:52:43;2.87;;;1.70;;
60582;SDS011;46415;47.536;19.066;2023-04-26T13:55:46;1.98;;;1.30;;
60582;SDS011;46415;47.536;19.066;2023-04-26T13:58:53;1.40;;;1.30;;
60582;SDS011;46415;47.536;19.066;2023-04-26T14:01:58;2.70;;;1.60;;
60582;SDS011;46415;47.536;19.066;2023-04-26T14:05:01;2.45;;;1.52;;
60582;SDS011;46415;47.536;19.066;2023-04-26T14:08:04;1.60;;;1.50;;
60582;SDS011;46415;47.536;19.066;2023-04-26T14:11:07;3.05;;;1.70;;
60582;SDS011;46415;47.536;19.066;2023-04-26T14:14:10;1.80;;;1.70;;
60582;SDS011;46415;47.536;19.066;2023-04-26T14:17:13;2.78;;;1.55;;
60582;SDS011;46415;47.536;19.066;2023-04-26T14:20:16;2.37;;;1.42;;
60582;SDS011;46415;47.536;19.066;2023-04-26T14:23:19;2.42;;;1.15;;
60582;SDS011;46415;47.536;19.066;2023-04-26T14:26:23;1.60;;;1.50;;
60582;SDS011;46415;47.536;19.066;2023-04-26T14:29:27;2.97;;;1.60;;
60582;SDS011;46415;47.536;19.066;2023-04-26T14:32:30;2.12;;;1.40;;
60582;SDS011;46415;47.536;19.066;2023-04-26T14:35:33;2.35;;;1.52;;
60582;SDS011;46415;47.536;19.066;2023-04-26T14:38:39;2.90;;;1.35;;
60582;SDS011;46415;47.536;19.066;2023-04-26T14:41:46;2.08;;;1.40;;
60582;SDS011;46415;47.536;19.066;2023-04-26T14:44:48;1.87;;;1.50;;
60582;SDS011;46415;47.536;19.066;2023-04-26T14:47:51;2.30;;;1.42;;
60582;SDS011;46415;47.536;19.066;2023-04-26T14:50:57;3.17;;;1.48;;
60582;SDS011;46415;47.536;19.066;2023-04-26T14:54:01;2.28;;;1.42;;
60582;SDS011;46415;47.536;19.066;2023-04-26T14:57:03;2.67;;;1.08;;
60582;SDS011;46415;47.536;19.066;2023-04-26T15:00:07;2.30;;;1.50;;
60582;SDS011;46415;47.536;19.066;2023-04-26T15:03:10;2.92;;;1.40;;
60582;SDS011;46415;47.536;19.066;2023-04-26T15:06:14;2.80;;;1.50;;
60582;SDS011;46415;47.536;19.066;2023-04-26T15:09:16;1.50;;;1.40;;
60582;SDS011;46415;47.536;19.066;2023-04-26T15:12:19;3.60;;;1.42;;
60582;SDS011;46415;47.536;19.066;2023-04-26T15:15:22;3.08;;;1.30;;
60582;SDS011;46415;47.536;19.066;2023-04-26T15:18:26;2.30;;;1.60;;
60582;SDS011;46415;47.536;19.066;2023-04-26T15:21:29;1.90;;;1.30;;
60582;SDS011;46415;47.536;19.066;2023-04-26T15:24:36;1.25;;;1.15;;
60582;SDS011;46415;47.536;19.066;2023-04-26T15:27:39;2.42;;;1.10;;
60582;SDS011;46415;47.536;19.066;2023-04-26T15:30:42;1.80;;;1.20;;
60582;SDS011;46415;47.536;19.066;2023-04-26T15:33:45;1.42;;;1.30;;
60582;SDS011;46415;47.536;19.066;2023-04-26T15:36:48;2.12;;;1.40;;
60582;SDS011;46415;47.536;19.066;2023-04-26T15:39:50;3.00;;;1.33;;
60582;SDS011;46415;47.536;19.066;2023-04-26T15:42:53;1.48;;;1.37;;
60582;SDS011;46415;47.536;19.066;2023-04-26T15:45:56;1.50;;;1.15;;
60582;SDS011;46415;47.536;19.066;2023-04-26T15:48:59;2.42;;;1.10;;
60582;SDS011;46415;47.536;19.066;2023-04-26T15:52:02;3.67;;;1.30;;
60582;SDS011;46415;47.536;19.066;2023-04-26T15:55:05;2.92;;;1.40;;
60582;SDS011;46415;47.536;19.066;2023-04-26T15:58:08;1.65;;;1.17;;
60582;SDS011;46415;47.536;19.066;2023-04-26T16:01:11;2.03;;;1.08;;
60582;SDS011;46415;47.536;19.066;2023-04-26T16:04:15;2.22;;;1.12;;
60582;SDS011;46415;47.536;19.066;2023-04-26T16:07:18;2.35;;;1.52;;
60582;SDS011;46415;47.536;19.066;2023-04-26T16:10:21;1.70;;;1.17;;
60582;SDS011;46415;47.536;19.066;2023-04-26T16:13:24;2.10;;;1.30;;
60582;SDS011;46415;47.536;19.066;2023-04-26T16:16:27;5.68;;;1.33;;
60582;SDS011;46415;47.536;19.066;2023-04-26T16:19:30;3.50;;;1.30;;
60582;SDS011;46415;47.536;19.066;2023-04-26T16:22:33;1.90;;;1.20;;
60582;SDS011;46415;47.536;19.066;2023-04-26T16:25:37;1.85;;;1.15;;
60582;SDS011;46415;47.536;19.066;2023-04-26T16:28:40;3.08;;;1.23;;
60582;SDS011;46415;47.536;19.066;2023-04-26T16:31:43;1.92;;;1.30;;
60582;SDS011;46415;47.536;19.066;2023-04-26T16:34:46;1.50;;;1.40;;
60582;SDS011;46415;47.536;19.066;2023-04-26T16:37:49;1.87;;;1.27;;
60582;SDS011;46415;47.536;19.066;2023-04-26T16:40:56;2.33;;;1.30;;
60582;SDS011;46415;47.536;19.066;2023-04-26T16:44:00;2.45;;;1.40;;
60582;SDS011;46415;47.536;19.066;2023-04-26T16:47:03;3.80;;;1.42;;
60582;SDS011;46415;47.536;19.066;2023-04-26T16:50:06;1.75;;;1.30;;
60582;SDS011;46415;47.536;19.066;2023-04-26T16:53:10;1.42;;;1.33;;
60582;SDS011;46415;47.536;19.066;2023-04-26T16:56:12;7.07;;;1.45;;
60582;SDS011;46415;47.536;19.066;2023-04-26T16:59:16;2.65;;;1.58;;
60582;SDS011;46415;47.536;19.066;2023-04-26T17:02:18;1.62;;;1.17;;
60582;SDS011;46415;47.536;19.066;2023-04-26T17:05:22;1.45;;;1.27;;
60582;SDS011;46415;47.536;19.066;2023-04-26T17:08:24;2.12;;;1.42;;
60582;SDS011;46415;47.536;19.066;2023-04-26T17:11:28;1.77;;;1.40;;
60582;SDS011;46415;47.536;19.066;2023-04-26T17:14:31;1.58;;;1.42;;
60582;SDS011;46415;47.536;19.066;2023-04-26T17:17:36;3.97;;;1.75;;
60582;SDS011;46415;47.536;19.066;2023-04-26T17:20:42;3.37;;;1.30;;
60582;SDS011;46415;47.536;19.066;2023-04-26T17:23:45;1.60;;;1.08;;
60582;SDS011;46415;47.536;19.066;2023-04-26T17:26:47;2.45;;;1.30;;
60582;SDS011;46415;47.536;19.066;2023-04-26T17:29:50;2.28;;;1.30;;
60582;SDS011;46415;47.536;19.066;2023-04-26T17:32:53;2.28;;;1.15;;
60582;SDS011;46415;47.536;19.066;2023-04-26T17:35:56;3.50;;;1.15;;
60582;SDS011;46415;47.536;19.066;2023-04-26T17:38:59;1.95;;;1.02;;
60582;SDS011;46415;47.536;19.066;2023-04-26T17:42:03;1.02;;;0.90;;
60582;SDS011;46415;47.536;19.066;2023-04-26T17:45:05;1.83;;;1.27;;
60582;SDS011;46415;47.536;19.066;2023-04-26T17:48:09;2.65;;;1.10;;
60582;SDS011;46415;47.536;19.066;2023-04-26T17:51:14;2.17;;;1.33;;
60582;SDS011;46415;47.536;19.066;2023-04-26T17:54:17;1.15;;;1.05;;
60582;SDS011;46415;47.536;19.066;2023-04-26T17:57:20;1.35;;;1.25;;
60582;SDS011;46415;47.536;19.066;2023-04-26T18:00:25;1.25;;;1.17;;
60582;SDS011;46415;47.536;19.066;2023-04-26T18:03:28;2.30;;;1.20;;
60582;SDS011;46415;47.536;19.066;2023-04-26T18:06:31;1.85;;;1.30;;
60582;SDS011;46415;47.536;19.066;2023-04-26T18:09:34;3.37;;;1.55;;
60582;SDS011;46415;47.536;19.066;2023-04-26T18:12:37;2.37;;;1.17;;
60582;SDS011;46415;47.536;19.066;2023-04-26T18:15:40;1.73;;;1.52;;
60582;SDS011;46415;47.536;19.066;2023-04-26T18:18:42;2.92;;;1.33;;